Time;durP1;ratioP1;P1;durP2;ratioP2;P2;SDS_P1;SDS_P2;PMS_P1;PMS_P2;Temp;Humidity;BMP_temperature;BMP_pressure;BME280_temperature;BME280_humidity;BME280_pressure;Samples;Min_cycle;Max_cycle;Signal;HPM_P1;HPM_P2
2021/07/20 00:00:19;;;;;;;14.65;11.10;;;;;;;20.20;100.00;99828.00;5052458;28;20053;-76
2021/07/20 00:02:49;;;;;;;17.08;11.43;;;;;;;20.16;100.00;99829.31;5052729;28;20041;-76
2021/07/20 00:05:23;;;;;;;16.00;11.57;;;;;;;20.10;100.00;99821.88;5052295;28;20076;-76
2021/07/20 00:07:56;;;;;;;19.83;11.68;;;;;;;20.02;100.00;99815.41;5052554;28;20434;-74
2021/07/20 00:10:29;;;;;;;21.42;11.85;;;;;;;19.95;100.00;99814.34;5052776;28;20055;-75
2021/07/20 00:12:58;;;;;;;18.13;11.93;;;;;;;20.06;100.00;99823.19;5053070;28;20045;-74
2021/07/20 00:15:27;;;;;;;17.40;11.65;;;;;;;20.05;100.00;99829.63;5052931;28;20053;-73
2021/07/20 00:17:59;;;;;;;16.25;11.68;;;;;;;19.98;100.00;99824.03;5052684;28;20112;-74
2021/07/20 00:20:30;;;;;;;16.92;11.48;;;;;;;20.19;100.00;99826.31;5052556;28;20041;-74
2021/07/20 00:22:58;;;;;;;19.27;11.68;;;;;;;20.07;100.00;99833.84;5052771;28;20037;-74
2021/07/20 00:25:26;;;;;;;16.83;11.38;;;;;;;20.09;100.00;99836.44;5052528;28;20052;-74
2021/07/20 00:27:55;;;;;;;15.88;11.25;;;;;;;19.97;100.00;99842.09;5052368;28;20048;-74
2021/07/20 00:30:24;;;;;;;14.80;11.52;;;;;;;19.88;100.00;99834.13;5052325;28;20041;-74
2021/07/20 00:32:53;;;;;;;19.23;11.57;;;;;;;19.79;100.00;99840.53;5052249;28;20127;-74
2021/07/20 00:35:21;;;;;;;16.90;11.75;;;;;;;19.80;100.00;99837.66;5052200;28;20845;-74
2021/07/20 00:37:54;;;;;;;15.90;11.43;;;;;;;19.89;100.00;99836.69;5052326;28;20041;-75
2021/07/20 00:40:22;;;;;;;18.15;11.43;;;;;;;19.86;100.00;99836.13;5052012;28;20359;-75
2021/07/20 00:42:53;;;;;;;15.60;11.20;;;;;;;19.87;100.00;99841.38;5052187;28;20049;-75
2021/07/20 00:45:22;;;;;;;15.63;11.90;;;;;;;19.80;100.00;99836.81;5052283;28;20365;-74
2021/07/20 00:47:50;;;;;;;17.40;10.55;;;;;;;19.79;100.00;99830.53;5051125;28;20053;-74
2021/07/20 00:50:23;;;;;;;17.40;11.32;;;;;;;19.77;100.00;99831.69;5051847;28;20480;-74
2021/07/20 00:52:54;;;;;;;16.60;11.50;;;;;;;19.72;100.00;99826.78;5052338;28;20435;-74
2021/07/20 00:55:23;;;;;;;18.02;11.48;;;;;;;19.63;100.00;99830.44;5050676;28;20049;-75
2021/07/20 00:57:52;;;;;;;17.00;11.57;;;;;;;19.60;100.00;99828.91;5052338;28;20071;-75
2021/07/20 01:00:23;;;;;;;18.27;11.98;;;;;;;19.68;100.00;99823.53;5052000;28;20041;-74
2021/07/20 01:02:51;;;;;;;17.20;11.80;;;;;;;19.63;100.00;99820.47;5053201;28;20403;-74
2021/07/20 01:05:22;;;;;;;16.30;11.20;;;;;;;19.59;100.00;99819.13;5055398;28;20111;-75
2021/07/20 01:07:51;;;;;;;15.63;11.27;;;;;;;19.58;100.00;99821.94;5054667;28;20057;-75
2021/07/20 01:10:24;;;;;;;19.35;11.63;;;;;;;19.57;100.00;99825.66;5055838;28;20056;-75
2021/07/20 01:12:52;;;;;;;17.30;11.68;;;;;;;19.56;100.00;99829.38;5056152;28;20507;-74
2021/07/20 01:15:23;;;;;;;17.33;11.35;;;;;;;19.59;100.00;99834.47;5055434;28;20041;-74
2021/07/20 01:17:55;;;;;;;17.08;10.70;;;;;;;19.55;100.00;99825.81;5055956;28;20049;-75
2021/07/20 01:20:26;;;;;;;15.07;11.30;;;;;;;19.58;100.00;99832.78;5054643;28;20053;-74
2021/07/20 01:23:01;;;;;;;17.35;10.93;;;;;;;19.62;100.00;99824.19;5055735;28;20045;-75
2021/07/20 01:25:31;;;;;;;18.73;11.38;;;;;;;19.56;100.00;99823.97;5054995;28;20041;-75
2021/07/20 01:28:03;;;;;;;20.00;11.70;;;;;;;19.40;100.00;99825.56;5055467;28;20045;-75
2021/07/20 01:30:34;;;;;;;18.25;12.13;;;;;;;19.42;100.00;99828.09;5053936;28;20049;-75
2021/07/20 01:33:04;;;;;;;16.00;11.95;;;;;;;19.25;100.00;99821.72;5054950;28;20045;-75
2021/07/20 01:35:34;;;;;;;15.13;12.00;;;;;;;19.31;100.00;99823.81;5055258;28;20135;-75
2021/07/20 01:38:08;;;;;;;16.47;11.70;;;;;;;19.26;100.00;99826.13;5055393;28;20115;-75
2021/07/20 01:40:40;;;;;;;20.30;12.73;;;;;;;19.22;100.00;99823.91;5055430;28;20056;-75
2021/07/20 01:43:09;;;;;;;17.67;12.52;;;;;;;19.17;100.00;99818.94;5054879;28;20048;-78
2021/07/20 01:45:40;;;;;;;18.80;11.95;;;;;;;19.15;100.00;99820.97;5055122;28;20048;-77
2021/07/20 01:48:10;;;;;;;17.85;11.70;;;;;;;19.13;100.00;99810.31;5054967;28;20484;-77
2021/07/20 01:50:38;;;;;;;16.88;11.48;;;;;;;19.16;100.00;99809.16;5054879;28;20051;-77
2021/07/20 01:53:07;;;;;;;16.48;11.55;;;;;;;19.22;100.00;99805.81;5054637;28;20049;-79
2021/07/20 01:55:36;;;;;;;16.17;11.07;;;;;;;19.23;100.00;99802.13;5055011;28;20099;-77
2021/07/20 01:58:07;;;;;;;16.77;11.88;;;;;;;19.26;100.00;99801.78;5054588;28;20048;-76
2021/07/20 02:00:35;;;;;;;16.98;11.23;;;;;;;19.12;100.00;99787.00;5055033;28;20047;-76
2021/07/20 02:03:26;;;;;;;17.50;11.93;;;;;;;19.12;100.00;99794.25;5054742;28;20049;-76
2021/07/20 02:08:45;;;;;;;19.35;11.73;;;;;;;19.16;100.00;99791.06;5054479;28;20060;-75
2021/07/20 02:11:17;;;;;;;18.67;11.23;;;;;;;19.08;100.00;99785.59;5054361;28;20107;-75
2021/07/20 02:13:53;;;;;;;20.43;11.67;;;;;;;19.08;100.00;99782.91;5053572;28;20077;-75
2021/07/20 02:16:27;;;;;;;18.67;12.23;;;;;;;18.92;100.00;99784.66;5052302;28;20049;-75
2021/07/20 02:19:02;;;;;;;19.13;11.98;;;;;;;18.88;100.00;99782.25;5054234;28;20135;-74
2021/07/20 02:21:32;;;;;;;17.33;12.05;;;;;;;18.90;100.00;99786.63;5053984;28;20041;-74
2021/07/20 02:24:01;;;;;;;20.05;12.73;;;;;;;18.80;100.00;99794.84;5054517;28;20061;-73
2021/07/20 02:26:30;;;;;;;19.77;13.18;;;;;;;18.71;100.00;99795.78;5054170;28;20041;-74
2021/07/20 02:29:02;;;;;;;15.68;12.63;;;;;;;18.80;100.00;99798.38;5054130;28;20090;-74
2021/07/20 02:31:33;;;;;;;20.10;12.02;;;;;;;18.73;100.00;99799.19;5054099;28;20076;-74
2021/07/20 02:34:03;;;;;;;18.73;11.98;;;;;;;18.68;100.00;99793.38;5054140;28;20041;-73
2021/07/20 02:36:32;;;;;;;20.65;13.13;;;;;;;18.63;100.00;99787.59;5052596;28;20049;-74
2021/07/20 02:39:01;;;;;;;22.55;12.75;;;;;;;18.63;100.00;99780.34;5053928;28;20056;-74
2021/07/20 02:41:30;;;;;;;19.02;11.98;;;;;;;18.57;100.00;99789.88;5053679;28;20380;-75
2021/07/20 02:44:01;;;;;;;18.63;12.95;;;;;;;18.58;100.00;99772.69;5053793;28;20400;-74
2021/07/20 02:46:30;;;;;;;18.88;13.15;;;;;;;18.66;100.00;99777.34;5053844;28;20065;-75
2021/07/20 02:48:59;;;;;;;21.80;13.18;;;;;;;18.64;100.00;99779.31;5053746;28;20120;-77
2021/07/20 02:51:31;;;;;;;21.15;12.95;;;;;;;18.71;100.00;99780.41;5052203;28;20053;-76
2021/07/20 02:54:02;;;;;;;21.33;12.88;;;;;;;18.53;100.00;99776.88;5053931;28;20056;-76
2021/07/20 02:56:32;;;;;;;18.52;13.18;;;;;;;18.46;100.00;99789.28;5053714;28;20041;-77
2021/07/20 02:59:06;;;;;;;25.20;12.90;;;;;;;18.50;100.00;99790.66;5054083;28;20440;-77
2021/07/20 03:01:39;;;;;;;19.27;13.23;;;;;;;18.44;100.00;99792.13;5053506;28;20406;-76
2021/07/20 03:04:08;;;;;;;17.83;12.23;;;;;;;18.50;100.00;99786.09;5053481;28;20095;-74
2021/07/20 03:06:40;;;;;;;20.83;13.55;;;;;;;18.34;100.00;99787.81;5053237;28;20099;-75
2021/07/20 03:09:12;;;;;;;20.40;13.73;;;;;;;18.32;100.00;99787.94;5052448;28;20094;-75
2021/07/20 03:11:44;;;;;;;18.85;13.68;;;;;;;18.42;100.00;99795.97;5053457;28;20079;-75
2021/07/20 03:14:21;;;;;;;20.65;13.43;;;;;;;18.38;100.00;99794.59;5053098;28;20041;-73
2021/07/20 03:16:54;;;;;;;22.38;13.77;;;;;;;18.28;100.00;99789.25;5053712;28;20099;-73
2021/07/20 03:19:26;;;;;;;22.10;14.15;;;;;;;18.25;100.00;99784.19;5052811;28;20053;-75
2021/07/20 03:21:57;;;;;;;17.17;12.40;;;;;;;18.34;100.00;99794.06;5053591;28;20106;-75
2021/07/20 03:24:26;;;;;;;17.30;12.77;;;;;;;18.36;100.00;99785.81;5053006;28;20098;-75
2021/07/20 03:26:56;;;;;;;18.92;12.75;;;;;;;18.34;100.00;99794.06;5052970;28;20045;-75
2021/07/20 03:29:27;;;;;;;19.30;13.57;;;;;;;18.42;100.00;99795.97;5052730;28;20040;-75
2021/07/20 03:31:56;;;;;;;19.63;12.68;;;;;;;18.44;100.00;99799.38;5053191;28;20045;-75
2021/07/20 03:34:26;;;;;;;17.27;12.88;;;;;;;18.42;100.00;99796.81;5053064;28;20045;-75
2021/07/20 03:36:55;;;;;;;23.40;13.20;;;;;;;18.50;100.00;99796.06;5052858;28;20045;-75
2021/07/20 03:39:24;;;;;;;19.80;13.00;;;;;;;18.43;100.00;99789.56;5052730;28;20072;-75
2021/07/20 03:41:54;;;;;;;17.35;12.30;;;;;;;18.52;100.00;99802.16;5052747;28;20044;-75
2021/07/20 03:44:23;;;;;;;21.80;13.10;;;;;;;18.48;100.00;99800.78;5052446;28;20119;-76
2021/07/20 03:46:53;;;;;;;21.35;13.05;;;;;;;18.51;100.00;99804.00;5053241;28;20123;-75
2021/07/20 03:49:23;;;;;;;19.42;12.80;;;;;;;18.66;100.00;99808.91;5052712;28;20045;-75
2021/07/20 03:51:52;;;;;;;17.08;11.90;;;;;;;18.97;100.00;99803.94;5052944;28;20048;-74
2021/07/20 03:54:22;;;;;;;17.10;12.18;;;;;;;19.34;100.00;99809.97;5052457;28;20047;-75
2021/07/20 03:56:53;;;;;;;17.27;11.60;;;;;;;19.70;100.00;99815.28;5052614;28;20045;-76
2021/07/20 03:59:23;;;;;;;17.63;11.55;;;;;;;19.66;100.00;99814.72;5052306;28;20047;-75
2021/07/20 04:01:55;;;;;;;16.23;11.07;;;;;;;20.31;100.00;99814.16;5052679;28;20045;-75
2021/07/20 04:04:24;;;;;;;18.83;10.07;;;;;;;20.95;100.00;99817.16;5052448;28;20049;-76
2021/07/20 04:06:57;;;;;;;17.50;11.30;;;;;;;20.94;100.00;99819.03;5052680;28;20045;-76
2021/07/20 04:09:27;;;;;;;15.80;9.73;;;;;;;21.48;97.97;99813.91;5052242;28;20048;-75
2021/07/20 04:11:56;;;;;;;16.60;10.10;;;;;;;21.86;94.72;99819.56;5052376;28;20067;-76
2021/07/20 04:14:26;;;;;;;14.25;9.40;;;;;;;21.99;92.33;99819.84;5052336;28;20045;-76
2021/07/20 04:16:56;;;;;;;17.23;9.90;;;;;;;22.23;89.83;99825.19;5052692;28;20044;-75
2021/07/20 04:19:25;;;;;;;15.10;9.95;;;;;;;22.62;88.19;99818.84;5052068;28;20041;-75
2021/07/20 04:21:53;;;;;;;14.18;9.68;;;;;;;22.81;87.56;99828.41;5052479;28;20377;-74
2021/07/20 04:24:26;;;;;;;16.95;9.27;;;;;;;23.12;86.07;99821.03;5052401;28;20069;-74
2021/07/20 04:26:55;;;;;;;17.35;9.18;;;;;;;23.19;85.57;99825.75;5051055;28;20526;-75
2021/07/20 04:29:24;;;;;;;15.40;9.07;;;;;;;23.57;84.68;99823.84;5052011;28;20040;-75
2021/07/20 04:31:57;;;;;;;14.50;8.77;;;;;;;23.41;84.47;99822.97;5052354;28;20041;-75
2021/07/20 04:34:26;;;;;;;13.82;8.50;;;;;;;23.42;83.97;99823.81;5052402;28;20045;-75
2021/07/20 04:36:55;;;;;;;17.10;9.13;;;;;;;24.11;79.98;99818.97;5052697;28;20466;-77
2021/07/20 04:39:24;;;;;;;13.70;9.00;;;;;;;24.41;79.24;99817.06;5055001;28;20045;-75
2021/07/20 04:41:55;;;;;;;12.63;8.48;;;;;;;24.39;80.16;99823.75;5056521;28;20063;-74
2021/07/20 04:44:24;;;;;;;12.43;8.65;;;;;;;24.32;80.13;99829.13;5055762;28;20079;-75
2021/07/20 04:46:53;;;;;;;14.63;9.25;;;;;;;24.91;77.84;99823.47;5056076;28;20091;-75
2021/07/20 04:49:23;;;;;;;13.20;8.73;;;;;;;25.18;75.67;99826.44;5055692;28;20045;-76
2021/07/20 04:51:52;;;;;;;17.33;8.63;;;;;;;25.46;74.45;99827.31;5055937;28;20479;-75
2021/07/20 04:54:21;;;;;;;14.63;8.65;;;;;;;25.14;75.44;99833.34;5055730;28;20049;-76
2021/07/20 04:56:50;;;;;;;17.08;9.18;;;;;;;25.35;74.73;99839.63;5055730;28;20052;-75
2021/07/20 04:59:21;;;;;;;14.63;9.25;;;;;;;25.79;71.47;99837.66;5055392;28;20095;-77
2021/07/20 05:01:50;;;;;;;13.93;8.18;;;;;;;25.85;71.59;99848.63;5055758;28;20055;-76
2021/07/20 05:04:19;;;;;;;13.65;8.27;;;;;;;25.95;70.46;99845.53;5055875;28;20057;-76
2021/07/20 05:06:52;;;;;;;14.63;8.68;;;;;;;26.43;69.31;99848.31;5055401;28;20052;-76
2021/07/20 05:09:20;;;;;;;15.82;8.70;;;;;;;26.12;69.51;99860.53;5055396;28;20055;-81
2021/07/20 05:11:49;;;;;;;14.55;9.20;;;;;;;25.72;71.92;99853.16;5055379;28;20385;-76
2021/07/20 05:14:20;;;;;;;13.73;9.27;;;;;;;25.89;69.60;99860.00;5055323;28;20124;-75
2021/07/20 05:16:48;;;;;;;12.82;9.18;;;;;;;26.00;69.75;99856.69;5054264;28;20091;-74
2021/07/20 05:19:18;;;;;;;16.73;9.35;;;;;;;24.96;74.97;99855.63;5055334;28;20088;-74
2021/07/20 05:21:47;;;;;;;14.18;9.15;;;;;;;25.85;71.23;99847.78;5055360;28;20048;-76
2021/07/20 05:24:18;;;;;;;15.25;9.70;;;;;;;26.10;69.14;99854.44;5055285;28;20072;-76
2021/07/20 05:26:46;;;;;;;15.15;9.73;;;;;;;26.06;70.07;99861.38;5055355;28;20409;-74
2021/07/20 05:29:16;;;;;;;16.60;9.95;;;;;;;25.89;69.25;99865.47;5055299;28;20041;-74
2021/07/20 05:31:48;;;;;;;13.68;9.40;;;;;;;25.91;68.09;99863.38;5054943;28;20439;-74
2021/07/20 05:34:17;;;;;;;;;;;;;;;26.21;68.55;99870.25;5055636;28;20041;-76
2021/07/20 05:36:46;;;;;;;18.02;10.15;;;;;;;26.60;67.90;99867.94;5055078;28;19921;-76
2021/07/20 05:39:15;;;;;;;15.35;9.57;;;;;;;26.86;65.79;99867.16;5055474;28;20052;-76
2021/07/20 05:41:45;;;;;;;16.00;9.60;;;;;;;26.72;67.68;99866.28;5055015;28;20072;-76
2021/07/20 05:44:14;;;;;;;16.88;9.55;;;;;;;25.40;72.78;99872.66;5055096;28;20066;-74
2021/07/20 05:46:43;;;;;;;14.70;9.43;;;;;;;25.43;71.76;99876.03;5054367;28;20231;-75
2021/07/20 05:49:12;;;;;;;15.93;9.10;;;;;;;26.26;69.88;99872.41;5054890;28;20112;-76
2021/07/20 05:51:42;;;;;;;16.80;9.70;;;;;;;26.68;68.05;99871.31;5054620;28;20068;-76
2021/07/20 05:54:11;;;;;;;16.92;9.15;;;;;;;26.73;67.92;99863.38;5054744;28;20048;-76
2021/07/20 05:56:43;;;;;;;13.90;8.65;;;;;;;27.67;63.19;99870.63;5054556;28;20392;-74
2021/07/20 05:59:12;;;;;;;16.58;9.57;;;;;;;27.82;62.74;99875.91;5054905;28;20041;-75
2021/07/20 06:01:44;;;;;;;14.85;9.30;;;;;;;27.35;62.97;99875.88;5054798;28;20045;-75
2021/07/20 06:04:13;;;;;;;13.80;8.63;;;;;;;26.39;66.35;99883.41;5055187;28;20040;-73
2021/07/20 06:06:42;;;;;;;13.23;8.77;;;;;;;27.47;62.87;99869.78;5055270;28;20053;-73
2021/07/20 06:09:10;;;;;;;15.07;8.50;;;;;;;27.24;63.70;99879.25;5054591;28;20045;-74
2021/07/20 06:11:43;;;;;;;13.00;8.23;;;;;;;27.50;62.14;99878.41;5054058;28;20480;-73
2021/07/20 06:14:13;;;;;;;15.65;8.77;;;;;;;28.05;60.72;99872.69;5054458;28;20041;-73
2021/07/20 06:16:43;;;;;;;15.45;8.68;;;;;;;27.84;61.98;99880.09;5054375;28;20403;-73
2021/07/20 06:19:12;;;;;;;14.93;9.07;;;;;;;28.46;60.52;99886.06;5053002;28;20438;-73
2021/07/20 06:21:43;;;;;;;12.77;8.45;;;;;;;27.92;60.92;99879.03;5053976;28;20163;-72
2021/07/20 06:24:13;;;;;;;13.95;8.77;;;;;;;28.33;60.29;99880.63;5054538;28;20407;-74
2021/07/20 06:26:43;;;;;;;15.00;9.52;;;;;;;28.30;59.44;99881.91;5054130;28;20132;-72
2021/07/20 06:29:15;;;;;;;17.70;8.70;;;;;;;28.46;58.53;99881.41;5054262;28;20067;-75
2021/07/20 06:31:46;;;;;;;16.63;9.13;;;;;;;28.46;58.47;99881.41;5053876;28;20044;-74
2021/07/20 06:34:15;;;;;;;13.95;9.45;;;;;;;28.50;59.12;99877.19;5054453;28;20041;-73
2021/07/20 06:36:44;;;;;;;15.55;10.23;;;;;;;28.52;59.03;99886.03;5053864;28;20041;-73
2021/07/20 06:39:14;;;;;;;16.13;9.55;;;;;;;28.79;54.47;99886.75;5053944;28;20044;-73
2021/07/20 06:41:44;;;;;;;14.73;10.30;;;;;;;28.58;54.09;99886.25;5052288;28;20052;-76
2021/07/20 06:44:15;;;;;;;16.80;10.48;;;;;;;28.11;56.91;99889.13;5054092;28;20052;-76
2021/07/20 06:46:45;;;;;;;17.73;10.13;;;;;;;28.66;54.13;99894.19;5053500;28;20385;-75
2021/07/20 06:49:15;;;;;;;16.95;11.25;;;;;;;28.60;55.47;99884.13;5053906;28;20052;-74
2021/07/20 06:51:43;;;;;;;17.85;10.93;;;;;;;28.58;55.21;99886.25;5053587;28;20041;-77
2021/07/20 06:54:11;;;;;;;18.70;11.45;;;;;;;28.63;55.00;99873.53;5053770;28;20044;-74
2021/07/20 06:56:41;;;;;;;19.20;11.00;;;;;;;28.30;56.30;99889.31;5053357;28;20570;-72
2021/07/20 06:59:14;;;;;;;19.58;11.07;;;;;;;27.91;57.47;99877.38;5053389;28;20120;-73
2021/07/20 07:01:45;;;;;;;16.27;11.45;;;;;;;27.49;58.37;99889.56;5052846;28;20041;-73
2021/07/20 07:04:19;;;;;;;17.88;11.20;;;;;;;27.24;58.29;99892.94;5053783;28;20048;-73
2021/07/20 07:06:50;;;;;;;20.10;11.85;;;;;;;26.75;59.75;99883.13;5053326;28;20045;-73
2021/07/20 07:09:20;;;;;;;18.55;11.38;;;;;;;26.05;63.59;99886.97;5052543;28;20088;-73
2021/07/20 07:11:50;;;;;;;18.15;11.18;;;;;;;25.86;66.47;99885.81;5053422;28;20076;-73
2021/07/20 07:14:18;;;;;;;17.40;11.90;;;;;;;25.50;67.10;99888.69;5053376;28;20095;-73
2021/07/20 07:16:50;;;;;;;20.83;11.30;;;;;;;25.29;65.93;99891.44;5053083;28;20079;-73
2021/07/20 07:19:20;;;;;;;18.30;11.90;;;;;;;25.73;65.28;99895.81;5053661;28;20057;-73
2021/07/20 07:21:51;;;;;;;17.63;11.35;;;;;;;25.73;63.62;99898.56;5053107;28;20075;-73
2021/07/20 07:24:21;;;;;;;20.08;11.27;;;;;;;25.81;63.82;99901.13;5053254;28;20098;-72
2021/07/20 07:26:50;;;;;;;18.08;11.40;;;;;;;25.59;64.06;99894.84;5053387;28;20041;-73
2021/07/20 07:29:20;;;;;;;20.13;11.60;;;;;;;25.61;66.19;99890.88;5053009;28;20059;-73
2021/07/20 07:31:50;;;;;;;21.23;12.00;;;;;;;25.34;66.62;99894.41;5052846;28;20107;-73
2021/07/20 07:34:19;;;;;;;18.02;11.90;;;;;;;25.16;65.77;99886.69;5053426;28;20052;-72
2021/07/20 07:36:49;;;;;;;20.15;11.95;;;;;;;25.20;65.62;99892.63;5053028;28;20041;-73
2021/07/20 07:39:17;;;;;;;18.63;11.73;;;;;;;24.73;65.63;99903.00;5053169;28;20041;-72
2021/07/20 07:41:47;;;;;;;19.52;12.38;;;;;;;24.56;66.13;99907.00;5053017;28;20048;-72
2021/07/20 07:44:21;;;;;;;21.77;12.93;;;;;;;24.32;69.99;99904.56;5053086;28;20041;-73
2021/07/20 07:46:53;;;;;;;21.30;12.30;;;;;;;24.42;70.14;99903.28;5052545;28;20049;-72
2021/07/20 07:49:22;;;;;;;17.52;12.10;;;;;;;24.24;69.41;99908.22;5053106;28;20530;-72
2021/07/20 07:51:54;;;;;;;21.83;11.73;;;;;;;24.51;68.37;99902.13;5052623;28;20538;-73
2021/07/20 07:54:23;;;;;;;18.05;11.57;;;;;;;24.57;69.88;99907.84;5052879;28;20037;-73
2021/07/20 07:56:53;;;;;;;17.92;11.27;;;;;;;24.30;67.09;99906.63;5052458;28;20480;-72
2021/07/20 07:59:26;;;;;;;19.98;11.70;;;;;;;24.39;67.15;99905.50;5051752;28;20484;-72
2021/07/20 08:01:57;;;;;;;21.75;12.27;;;;;;;24.42;67.44;99907.88;5052628;28;20103;-72
2021/07/20 08:04:28;;;;;;;17.80;11.20;;;;;;;24.28;68.05;99904.94;5052927;28;20476;-72
2021/07/20 08:06:59;;;;;;;17.45;11.95;;;;;;;24.13;68.85;99906.00;5052606;28;20044;-73
2021/07/20 08:09:31;;;;;;;17.58;11.63;;;;;;;24.16;70.89;99903.72;5053153;28;20045;-72
2021/07/20 08:12:01;;;;;;;16.73;11.02;;;;;;;24.21;70.72;99906.72;5052984;28;20510;-72
2021/07/20 08:14:30;;;;;;;17.25;10.85;;;;;;;24.38;68.05;99914.72;5056375;28;20056;-72
2021/07/20 08:17:02;;;;;;;17.42;11.48;;;;;;;24.16;68.39;99921.94;5056540;28;20048;-72
2021/07/20 08:19:32;;;;;;;18.17;11.20;;;;;;;24.36;68.96;99911.34;5056934;28;20063;-73
2021/07/20 08:22:03;;;;;;;18.83;11.55;;;;;;;24.57;69.32;99916.03;5056528;28;20289;-73
2021/07/20 08:24:34;;;;;;;17.98;12.02;;;;;;;24.44;70.85;99909.38;5055822;28;20071;-73
2021/07/20 08:27:13;;;;;;;17.55;11.63;;;;;;;24.63;68.07;99918.00;5056707;28;20048;-73
2021/07/20 08:29:44;;;;;;;19.30;11.38;;;;;;;24.46;67.63;99912.75;5056249;28;20492;-73
2021/07/20 08:32:17;;;;;;;19.38;11.82;;;;;;;24.43;69.03;99907.69;5056489;28;20045;-73
2021/07/20 08:34:50;;;;;;;16.42;11.63;;;;;;;24.58;68.00;99909.53;5056480;28;20099;-73
2021/07/20 08:37:41;;;;;;;17.90;11.18;;;;;;;24.74;68.01;99903.84;5056390;28;20044;-73
2021/07/20 08:40:28;;;;;;;16.10;11.25;;;;;;;24.44;67.42;99908.53;5056365;28;20045;-73
2021/07/20 08:43:10;;;;;;;20.55;11.68;;;;;;;24.56;67.43;99912.44;5056076;28;20430;-73
2021/07/20 08:45:56;;;;;;;17.05;11.50;;;;;;;24.54;69.60;99907.19;5056073;28;20045;-74
2021/07/20 08:48:33;;;;;;;19.90;11.90;;;;;;;24.55;67.91;99908.88;5056224;28;20120;-73
2021/07/20 08:51:05;;;;;;;20.27;11.68;;;;;;;24.66;67.60;99915.72;5055949;28;20037;-73
2021/07/20 08:53:40;;;;;;;17.10;11.00;;;;;;;24.65;69.18;99905.00;5056303;28;20041;-74
2021/07/20 08:56:10;;;;;;;16.10;11.02;;;;;;;24.73;65.83;99913.06;5056442;28;20060;-73
2021/07/20 08:58:43;;;;;;;17.63;11.85;;;;;;;24.77;66.53;99911.66;5055948;28;20128;-74
2021/07/20 09:01:24;;;;;;;19.60;11.52;;;;;;;24.85;68.84;99908.81;5056016;28;20048;-74
2021/07/20 09:04:09;;;;;;;19.48;11.35;;;;;;;24.92;68.45;99906.16;5055651;28;20143;-73
2021/07/20 09:06:49;;;;;;;18.52;11.93;;;;;;;24.76;69.31;99913.53;5054143;28;20431;-74
2021/07/20 09:09:26;;;;;;;20.30;11.57;;;;;;;24.99;67.04;99921.53;5054440;28;20049;-74
2021/07/20 09:12:02;;;;;;;18.42;10.93;;;;;;;24.84;65.99;99915.31;5055457;28;20076;-73
2021/07/20 09:14:36;;;;;;;16.40;10.38;;;;;;;25.04;67.04;99919.13;5054604;28;20045;-72
2021/07/20 09:17:14;;;;;;;16.98;11.90;;;;;;;24.88;66.81;99913.88;5055750;28;20048;-73
2021/07/20 09:19:50;;;;;;;18.65;11.18;;;;;;;24.86;67.42;99907.75;5054804;28;20083;-73
2021/07/20 09:22:23;;;;;;;15.23;11.20;;;;;;;24.85;67.46;99908.81;5054572;28;20048;-72
2021/07/20 09:24:57;;;;;;;20.42;11.73;;;;;;;24.83;68.81;99899.97;5053903;28;20071;-72
2021/07/20 09:27:31;;;;;;;16.60;10.68;;;;;;;24.98;67.98;99900.75;5054642;28;20064;-72
2021/07/20 09:30:13;;;;;;;19.52;11.00;;;;;;;25.03;65.35;99903.78;5054673;28;20059;-73
2021/07/20 09:32:50;;;;;;;17.23;10.93;;;;;;;24.91;66.54;99905.31;5054224;28;20041;-74
2021/07/20 09:35:27;;;;;;;18.45;11.80;;;;;;;25.09;64.70;99913.06;5054138;28;20045;-73
2021/07/20 09:38:05;;;;;;;23.20;11.88;;;;;;;25.12;65.54;99907.25;5053240;28;20135;-73
2021/07/20 09:40:47;;;;;;;18.95;11.45;;;;;;;25.13;65.85;99906.19;5054517;28;20079;-73
2021/07/20 09:43:27;;;;;;;17.58;10.98;;;;;;;25.04;64.58;99905.47;5054438;28;20051;-73
2021/07/20 09:46:02;;;;;;;17.40;11.50;;;;;;;25.08;62.80;99914.94;5054073;28;20041;-73
2021/07/20 09:48:41;;;;;;;17.92;11.60;;;;;;;25.14;65.14;99899.69;5054214;28;20495;-73
2021/07/20 09:51:25;;;;;;;16.92;10.93;;;;;;;25.31;65.60;99909.31;5054211;28;20045;-73
2021/07/20 09:54:33;;;;;;;18.05;11.43;;;;;;;25.61;64.70;99904.53;5053903;28;20091;-73
2021/07/20 09:57:16;;;;;;;17.50;10.18;;;;;;;25.31;62.66;99911.19;5053700;28;20517;-73
2021/07/20 10:00:00;;;;;;;17.43;10.73;;;;;;;25.39;64.21;99903.72;5053809;28;20463;-73
2021/07/20 10:02:36;;;;;;;18.30;11.50;;;;;;;25.56;63.91;99903.41;5053978;28;20120;-73
2021/07/20 10:05:13;;;;;;;16.85;11.93;;;;;;;25.46;63.09;99898.31;5053727;28;20045;-73
2021/07/20 10:07:51;;;;;;;14.43;10.60;;;;;;;25.57;63.08;99891.44;5053710;28;20041;-74
2021/07/20 10:10:26;;;;;;;18.77;11.95;;;;;;;25.67;61.46;99895.56;5053861;28;20099;-73
2021/07/20 10:13:04;;;;;;;17.27;11.10;;;;;;;25.43;61.70;99898.69;5053551;28;20045;-73
2021/07/20 10:15:49;;;;;;;18.35;11.50;;;;;;;25.30;60.99;99893.13;5053792;28;20110;-73
2021/07/20 10:18:22;;;;;;;18.67;9.95;;;;;;;25.35;61.57;99891.50;5009109;28;1248329;-73
2021/07/20 10:21:00;;;;;;;16.80;10.65;;;;;;;25.56;63.09;99889.78;5054519;28;20045;-73
2021/07/20 10:23:36;;;;;;;17.58;11.30;;;;;;;25.40;60.15;99880.00;5054406;28;20114;-72
2021/07/20 10:26:23;;;;;;;16.20;11.55;;;;;;;25.74;62.31;99879.22;5054263;28;20079;-72
2021/07/20 10:29:01;;;;;;;16.80;11.38;;;;;;;25.78;61.79;99874.22;5054041;28;20484;-72
2021/07/20 10:31:34;;;;;;;16.10;9.82;;;;;;;25.79;61.63;99870.44;5054713;28;20079;-74
2021/07/20 10:34:07;;;;;;;14.65;10.18;;;;;;;25.49;61.94;99873.34;5053733;28;20079;-74
2021/07/20 10:36:46;;;;;;;19.88;11.63;;;;;;;25.73;60.69;99876.69;5053490;28;20037;-73
2021/07/20 10:39:19;;;;;;;14.95;10.25;;;;;;;25.82;59.75;99872.78;5054068;28;20076;-73
2021/07/20 10:41:55;;;;;;;18.55;11.48;;;;;;;25.60;57.75;99886.47;5054173;28;20408;-74
2021/07/20 10:44:29;;;;;;;18.05;12.02;;;;;;;25.68;59.04;99880.00;5054222;28;20113;-73
2021/07/20 10:47:02;;;;;;;18.00;11.38;;;;;;;25.80;58.35;99883.06;5053671;28;20082;-74
2021/07/20 10:49:35;;;;;;;16.08;10.52;;;;;;;25.97;58.40;99873.50;5053986;28;20088;-74
2021/07/20 10:52:06;;;;;;;;;;;;;;;26.05;54.47;99876.06;5054256;28;20052;-74
2021/07/20 10:54:40;;;;;;;14.07;10.23;;;;;;;26.06;55.16;99879.66;5054176;28;19920;-73
2021/07/20 10:57:18;;;;;;;17.38;10.60;;;;;;;26.26;56.61;99872.41;5052642;28;20060;-73
2021/07/20 10:59:57;;;;;;;15.57;11.55;;;;;;;26.16;58.48;99874.66;5054043;28;20044;-74
2021/07/20 11:02:35;;;;;;;19.17;10.98;;;;;;;26.29;56.32;99876.63;5054032;28;20045;-74
2021/07/20 11:05:07;;;;;;;16.23;10.95;;;;;;;26.46;56.76;99864.31;5053495;28;20057;-73
2021/07/20 11:07:39;;;;;;;15.63;9.70;;;;;;;26.50;56.45;99860.13;5052338;28;20048;-73
2021/07/20 11:10:13;;;;;;;14.57;10.57;;;;;;;26.39;57.05;99866.19;5053529;28;20358;-74
2021/07/20 11:12:45;;;;;;;16.35;10.15;;;;;;;26.47;56.24;99875.03;5053369;28;20487;-74
2021/07/20 11:15:16;;;;;;;15.85;11.25;;;;;;;26.40;54.41;99870.59;5053348;28;20441;-73
2021/07/20 11:17:46;;;;;;;17.42;11.75;;;;;;;26.39;55.11;99868.91;5053263;28;20447;-74
2021/07/20 11:20:18;;;;;;;16.05;11.00;;;;;;;26.46;53.79;99878.00;5053414;28;20049;-74
2021/07/20 11:22:49;;;;;;;16.60;11.45;;;;;;;26.76;53.74;99868.41;5053239;28;20041;-74
2021/07/20 11:25:19;;;;;;;15.63;10.23;;;;;;;26.42;53.24;99871.22;5053349;28;20048;-74
2021/07/20 11:27:49;;;;;;;17.42;12.05;;;;;;;26.28;54.01;99864.84;5053560;28;20044;-74
2021/07/20 11:30:21;;;;;;;16.13;11.45;;;;;;;26.43;54.04;99859.25;5053345;28;20098;-74
2021/07/20 11:32:57;;;;;;;16.48;11.13;;;;;;;26.68;52.61;99854.91;5053143;28;20041;-85
2021/07/20 11:35:29;;;;;;;18.10;11.25;;;;;;;26.87;53.04;99849.69;5051640;28;20454;-74
2021/07/20 11:38:05;;;;;;;15.77;10.68;;;;;;;26.95;52.25;99855.81;5053107;28;20123;-74
2021/07/20 11:40:42;;;;;;;15.35;11.65;;;;;;;26.82;51.24;99856.63;5052951;28;20059;-74